createdAt,value
2022-10-22T00:01:36.048Z,0.63
2022-10-22T00:04:03.739Z,1.52
2022-10-22T00:06:31.299Z,0.52
2022-10-22T00:08:59.058Z,1.38
2022-10-22T00:11:26.694Z,0.38
2022-10-22T00:13:54.874Z,0.65
2022-10-22T00:16:22.346Z,0.65
2022-10-22T00:18:49.946Z,0.82
2022-10-22T00:21:17.660Z,0.63
2022-10-22T00:23:45.365Z,1.40
2022-10-22T00:26:13.228Z,0.20
2022-10-22T00:28:41.071Z,1.27
2022-10-22T00:31:08.700Z,0.95
2022-10-22T00:33:39.081Z,0.93
2022-10-22T00:36:06.897Z,1.88
2022-10-22T00:38:34.910Z,0.63
2022-10-22T00:43:56.005Z,1.65
2022-10-22T00:46:23.628Z,0.65
2022-10-22T00:48:52.511Z,0.10
2022-10-22T00:51:23.330Z,1.10
2022-10-22T00:54:00.632Z,1.20
2022-10-22T00:56:28.138Z,0.47
2022-10-22T00:59:02.282Z,0.28
2022-10-22T01:01:32.611Z,0.77
2022-10-22T01:04:03.150Z,0.35
2022-10-22T01:06:33.184Z,0.63
2022-10-22T01:09:06.763Z,2.05
2022-10-22T01:12:02.945Z,1.48
2022-10-22T01:14:46.325Z,1.17
2022-10-22T01:17:32.196Z,0.68
2022-10-22T01:20:22.388Z,0.30
2022-10-22T01:23:13.697Z,1.17
2022-10-22T01:25:58.754Z,1.08
2022-10-22T01:28:43.150Z,0.98
2022-10-22T01:31:13.641Z,0.95
2022-10-22T01:34:30.829Z,0.13
2022-10-22T01:37:01.815Z,0.85
2022-10-22T01:39:31.630Z,1.52
2022-10-22T01:41:59.821Z,0.57
2022-10-22T01:47:23.811Z,0.88
2022-10-22T01:50:28.621Z,0.40
2022-10-22T01:53:17.476Z,0.40
2022-10-22T01:56:00.851Z,0.38
2022-10-22T01:58:54.469Z,0.63
2022-10-22T02:01:42.371Z,0.98
2022-10-22T02:04:19.017Z,0.60
2022-10-22T02:06:49.969Z,1.75
2022-10-22T02:09:20.201Z,0.38
2022-10-22T02:11:49.140Z,0.55
2022-10-22T02:14:19.349Z,0.60
2022-10-22T02:16:49.476Z,0.65
2022-10-22T02:19:23.511Z,0.38
2022-10-22T02:21:51.754Z,1.75
2022-10-22T02:24:20.915Z,0.30
2022-10-22T02:27:13.295Z,0.35
2022-10-22T02:29:52.560Z,1.45
2022-10-22T02:32:24.714Z,1.48
2022-10-22T02:34:55.241Z,1.45
2022-10-22T02:37:24.810Z,1.75
2022-10-22T02:39:53.605Z,1.45
2022-10-22T02:42:21.093Z,0.45
2022-10-22T02:44:48.593Z,0.45
2022-10-22T02:47:16.208Z,1.00
2022-10-22T02:49:43.704Z,0.85
2022-10-22T02:52:11.196Z,0.80
2022-10-22T02:54:39.652Z,1.20
2022-10-22T02:57:07.313Z,1.70
2022-10-22T02:59:34.981Z,1.70
2022-10-22T03:02:02.448Z,0.60
2022-10-22T03:04:29.964Z,1.38
2022-10-22T03:06:57.454Z,0.70
2022-10-22T03:09:25.102Z,2.67
2022-10-22T03:11:52.931Z,0.85
2022-10-22T03:14:20.532Z,1.38
2022-10-22T03:16:48.049Z,1.33
2022-10-22T03:19:18.631Z,0.50
2022-10-22T03:21:53.400Z,0.30
2022-10-22T03:24:49.167Z,0.10
2022-10-22T03:27:20.160Z,1.50
2022-10-22T03:29:51.412Z,1.02
2022-10-22T03:32:19.910Z,0.90
2022-10-22T03:34:47.572Z,0.70
2022-10-22T03:37:15.260Z,0.80
2022-10-22T03:39:42.822Z,1.02
2022-10-22T03:42:10.934Z,0.63
2022-10-22T03:44:46.441Z,0.52
2022-10-22T03:47:13.871Z,0.65
2022-10-22T03:49:42.648Z,1.00
2022-10-22T03:52:14.448Z,0.50
2022-10-22T03:54:43.030Z,0.98
2022-10-22T03:57:11.666Z,0.20
2022-10-22T03:59:42.627Z,1.17
2022-10-22T04:02:11.904Z,0.52
2022-10-22T04:04:40.111Z,0.15
2022-10-22T04:07:09.602Z,0.20
2022-10-22T04:09:37.667Z,0.63
2022-10-22T04:12:08.540Z,0.50
2022-10-22T04:14:36.096Z,1.10
2022-10-22T04:17:06.667Z,1.00
2022-10-22T04:19:34.210Z,0.87
2022-10-22T04:22:01.739Z,0.70
2022-10-22T04:24:31.112Z,0.65
2022-10-22T04:27:01.720Z,0.20
2022-10-22T04:29:29.251Z,0.67
2022-10-22T04:31:56.668Z,0.25
2022-10-22T04:34:28.072Z,0.35
2022-10-22T04:36:55.699Z,0.68
2022-10-22T04:39:23.454Z,1.05
2022-10-22T04:41:53.446Z,0.85
2022-10-22T04:44:21.010Z,0.85
2022-10-22T04:46:48.664Z,1.27
2022-10-22T04:49:16.080Z,1.05
2022-10-22T04:51:43.595Z,0.65
2022-10-22T04:54:11.097Z,0.95
2022-10-22T04:56:39.106Z,0.68
2022-10-22T04:59:09.033Z,0.25
2022-10-22T05:01:44.434Z,2.17
2022-10-22T05:04:14.877Z,0.98
2022-10-22T05:06:42.754Z,0.98
2022-10-22T05:09:17.781Z,0.50
2022-10-22T05:11:49.014Z,1.45
2022-10-22T05:14:22.531Z,0.57
2022-10-22T05:16:50.823Z,1.50
2022-10-22T05:19:20.000Z,1.05
2022-10-22T05:21:47.745Z,0.68
2022-10-22T05:24:15.294Z,3.38
2022-10-22T05:26:42.807Z,1.90
2022-10-22T05:29:10.225Z,0.40
2022-10-22T05:31:38.115Z,0.45
2022-10-22T05:34:05.582Z,1.80
2022-10-22T05:36:32.983Z,3.08
2022-10-22T05:39:00.326Z,1.27
2022-10-22T05:41:29.166Z,2.30
2022-10-22T05:43:58.352Z,0.98
2022-10-22T05:46:29.011Z,1.52
2022-10-22T05:48:59.344Z,1.08
2022-10-22T05:51:29.017Z,0.47
2022-10-22T05:53:59.616Z,1.27
2022-10-22T05:56:29.140Z,1.80
2022-10-22T05:58:57.169Z,2.20
2022-10-22T06:01:30.243Z,1.20
2022-10-22T06:04:00.106Z,2.15
2022-10-22T06:06:32.222Z,1.55
2022-10-22T06:09:22.763Z,1.10
2022-10-22T06:11:53.237Z,1.50
2022-10-22T06:14:21.897Z,0.88
2022-10-22T06:16:49.587Z,1.98
2022-10-22T06:19:19.817Z,0.20
2022-10-22T06:21:47.886Z,1.10
2022-10-22T06:24:15.987Z,0.80
2022-10-22T06:26:43.419Z,1.15
2022-10-22T06:29:10.933Z,1.75
2022-10-22T06:31:38.879Z,1.38
2022-10-22T06:34:08.790Z,1.45
2022-10-22T06:36:36.543Z,0.68
2022-10-22T06:39:05.361Z,0.55
2022-10-22T06:41:32.917Z,2.08
2022-10-22T06:44:00.316Z,1.92
2022-10-22T06:46:31.688Z,1.50
2022-10-22T06:49:01.726Z,2.20
2022-10-22T06:51:33.662Z,1.27
2022-10-22T06:54:02.272Z,1.38
2022-10-22T06:56:31.379Z,1.75
2022-10-22T06:59:00.847Z,2.45
2022-10-22T07:01:32.449Z,0.52
2022-10-22T07:04:01.273Z,2.05
2022-10-22T07:06:30.052Z,2.05
2022-10-22T07:09:00.512Z,1.08
2022-10-22T07:11:31.406Z,2.25
2022-10-22T07:14:00.832Z,1.88
2022-10-22T07:16:32.149Z,1.17
2022-10-22T07:19:02.939Z,2.10
2022-10-22T07:21:32.828Z,2.50
2022-10-22T07:24:05.353Z,2.33
2022-10-22T07:26:33.772Z,1.23
2022-10-22T07:29:04.971Z,1.70
2022-10-22T07:31:33.261Z,2.72
2022-10-22T07:34:02.806Z,2.35
2022-10-22T07:36:32.572Z,2.17
2022-10-22T07:39:00.798Z,1.63
2022-10-22T07:41:33.842Z,1.83
2022-10-22T07:44:03.865Z,2.70
2022-10-22T07:46:36.875Z,0.50
2022-10-22T07:49:06.800Z,1.92
2022-10-22T07:51:35.731Z,1.23
2022-10-22T07:54:04.901Z,1.02
2022-10-22T07:56:34.981Z,1.38
2022-10-22T07:59:04.066Z,1.98
2022-10-22T08:01:32.713Z,1.35
2022-10-22T08:04:01.448Z,2.40
2022-10-22T08:06:37.005Z,0.70
2022-10-22T08:09:05.742Z,0.95
2022-10-22T08:11:36.755Z,1.33
2022-10-22T08:14:07.287Z,0.80
2022-10-22T08:16:37.481Z,1.88
2022-10-22T08:19:20.123Z,1.13
2022-10-22T08:21:49.356Z,0.95
2022-10-22T08:24:19.007Z,1.88
2022-10-22T08:26:51.842Z,1.80
2022-10-22T08:29:20.685Z,0.90
2022-10-22T08:31:54.937Z,2.30
2022-10-22T08:34:28.000Z,0.70
2022-10-22T08:36:56.652Z,1.67
2022-10-22T08:39:28.910Z,0.95
2022-10-22T08:42:17.241Z,1.75
2022-10-22T08:45:13.856Z,1.10
2022-10-22T08:48:17.231Z,0.47
2022-10-22T08:50:55.664Z,1.52
2022-10-22T08:53:45.748Z,0.80
2022-10-22T08:56:15.938Z,1.13
2022-10-22T08:59:21.049Z,0.70
2022-10-22T09:01:54.219Z,0.73
2022-10-22T09:04:41.124Z,1.02
2022-10-22T09:07:14.406Z,1.10
2022-10-22T09:09:49.525Z,1.83
2022-10-22T09:12:30.570Z,0.73
2022-10-22T09:15:02.380Z,0.95
2022-10-22T09:17:56.217Z,1.17
2022-10-22T09:20:28.489Z,0.60
2022-10-22T09:23:25.872Z,0.68
2022-10-22T09:25:57.353Z,0.60
2022-10-22T09:28:27.228Z,0.25
2022-10-22T09:31:03.831Z,1.33
2022-10-22T09:33:31.967Z,1.27
2022-10-22T09:38:40.667Z,0.40
2022-10-22T09:41:09.304Z,1.38
2022-10-22T09:43:37.428Z,0.77
2022-10-22T09:46:15.623Z,0.73
2022-10-22T09:49:18.678Z,0.85
2022-10-22T09:51:54.226Z,0.65
2022-10-22T09:54:27.057Z,1.38
2022-10-22T09:57:14.034Z,0.55
2022-10-22T09:59:47.717Z,0.30
2022-10-22T10:02:37.121Z,0.95
2022-10-22T10:05:17.655Z,1.05
2022-10-22T10:07:49.282Z,0.50
2022-10-22T10:10:27.971Z,0.57
2022-10-22T10:13:19.587Z,1.17
2022-10-22T10:16:40.702Z,0.50
2022-10-22T10:19:26.804Z,0.95
2022-10-22T10:22:16.021Z,0.20
2022-10-22T10:25:07.707Z,0.43
2022-10-22T10:27:49.300Z,0.85
2022-10-22T10:30:23.187Z,0.20
2022-10-22T10:32:56.074Z,0.35
2022-10-22T10:35:30.174Z,0.20
2022-10-22T10:38:11.407Z,0.68
2022-10-22T10:40:48.153Z,0.52
2022-10-22T10:43:27.983Z,0.20
2022-10-22T10:46:29.534Z,1.15
2022-10-22T10:49:08.366Z,0.20
2022-10-22T10:51:49.741Z,1.33
2022-10-22T10:56:56.754Z,0.45
2022-10-22T10:59:45.988Z,0.38
2022-10-22T11:02:53.755Z,0.65
2022-10-22T11:05:29.049Z,0.85
2022-10-22T11:08:01.245Z,0.30
2022-10-22T11:10:42.395Z,0.47
2022-10-22T11:14:02.485Z,0.50
2022-10-22T11:16:43.818Z,1.13
2022-10-22T11:19:49.636Z,0.68
2022-10-22T11:23:00.291Z,0.63
2022-10-22T11:25:44.546Z,0.68
2022-10-22T11:28:23.916Z,0.10
2022-10-22T11:30:59.526Z,0.40
2022-10-22T11:33:36.713Z,0.20
2022-10-22T11:36:06.057Z,0.30
2022-10-22T11:38:35.060Z,0.57
2022-10-22T11:41:07.550Z,0.35
2022-10-22T11:43:55.348Z,1.33
2022-10-22T11:46:23.187Z,0.30
2022-10-22T11:49:05.275Z,0.55
2022-10-22T11:51:38.823Z,0.13
2022-10-22T11:54:42.015Z,0.63
2022-10-22T11:57:15.468Z,0.43
2022-10-22T11:59:51.776Z,0.65
2022-10-22T12:02:28.407Z,0.85
2022-10-22T12:05:18.889Z,0.47
2022-10-22T12:07:59.288Z,0.68
2022-10-22T12:10:35.518Z,0.32
2022-10-22T12:13:27.903Z,0.77
2022-10-22T12:15:59.446Z,0.77
2022-10-22T12:18:35.438Z,0.20
2022-10-22T12:21:03.089Z,0.52
2022-10-22T12:23:36.447Z,0.63
2022-10-22T12:26:06.934Z,0.50
2022-10-22T12:28:43.568Z,0.35
2022-10-22T12:31:17.830Z,1.02
2022-10-22T12:33:48.103Z,0.30
2022-10-22T12:36:20.291Z,0.23
2022-10-22T12:38:50.725Z,1.13
2022-10-22T12:41:18.202Z,0.85
2022-10-22T12:43:45.901Z,0.90
2022-10-22T12:46:16.007Z,0.35
2022-10-22T12:48:45.688Z,0.77
2022-10-22T12:51:18.838Z,0.80
2022-10-22T12:53:51.772Z,0.25
2022-10-22T12:56:25.656Z,0.73
2022-10-22T12:58:57.063Z,0.73
2022-10-22T13:01:28.034Z,0.35
2022-10-22T13:04:18.475Z,0.80
2022-10-22T13:06:48.924Z,0.85
2022-10-22T13:09:23.813Z,0.40
2022-10-22T13:12:04.014Z,1.77
2022-10-22T13:14:34.722Z,0.43
2022-10-22T13:17:09.559Z,0.73
2022-10-22T13:19:47.942Z,0.95
2022-10-22T13:22:32.229Z,1.00
2022-10-22T13:25:17.359Z,0.63
2022-10-22T13:28:00.946Z,0.95
2022-10-22T13:30:34.976Z,0.43
2022-10-22T13:33:05.625Z,0.47
2022-10-22T13:35:36.109Z,0.10
2022-10-22T13:40:44.248Z,0.68
2022-10-22T13:43:12.516Z,1.05
2022-10-22T13:45:40.358Z,1.10
2022-10-22T13:48:16.380Z,0.57
2022-10-22T13:50:46.907Z,0.70
2022-10-22T13:53:19.127Z,0.47
2022-10-22T13:55:50.020Z,0.60
2022-10-22T13:58:22.544Z,1.15
2022-10-22T14:00:53.698Z,0.65
2022-10-22T14:03:29.258Z,0.70
2022-10-22T14:06:03.009Z,1.13
2022-10-22T14:08:30.689Z,1.13
2022-10-22T14:10:58.199Z,0.50
2022-10-22T14:13:26.273Z,0.45
2022-10-22T14:16:00.408Z,1.20
2022-10-22T14:18:28.754Z,0.75
2022-10-22T14:21:08.480Z,0.88
2022-10-22T14:23:43.580Z,0.43
2022-10-22T14:26:33.168Z,0.65
2022-10-22T14:29:09.939Z,0.17
2022-10-22T14:31:51.085Z,2.50
2022-10-22T14:34:18.679Z,0.63
2022-10-22T14:37:07.500Z,0.98
2022-10-22T14:39:38.883Z,0.60
2022-10-22T14:42:22.719Z,0.60
2022-10-22T14:44:59.085Z,0.65
2022-10-22T14:50:24.113Z,1.55
2022-10-22T14:52:55.048Z,0.40
2022-10-22T14:55:23.371Z,1.02
2022-10-22T14:57:54.723Z,0.15
2022-10-22T15:00:29.895Z,0.63
2022-10-22T15:03:09.574Z,0.88
2022-10-22T15:05:44.995Z,0.55
2022-10-22T15:08:16.004Z,1.25
2022-10-22T15:11:04.282Z,1.55
2022-10-22T15:13:34.814Z,0.90
2022-10-22T15:16:06.897Z,0.50
2022-10-22T15:18:38.137Z,1.58
2022-10-22T15:23:41.772Z,2.33
2022-10-22T15:26:17.144Z,0.83
2022-10-22T15:28:45.344Z,0.73
2022-10-22T15:31:45.879Z,0.60
2022-10-22T15:34:25.297Z,1.10
2022-10-22T15:36:58.875Z,0.80
2022-10-22T15:39:30.487Z,1.13
2022-10-22T15:42:03.946Z,0.77
2022-10-22T15:44:35.632Z,1.30
2022-10-22T15:47:07.716Z,1.50
2022-10-22T15:49:44.554Z,1.52
2022-10-22T15:52:12.081Z,0.60
2022-10-22T15:54:46.018Z,0.90
2022-10-22T15:57:19.437Z,1.48
2022-10-22T15:59:47.705Z,3.78
2022-10-22T16:02:15.155Z,2.92
2022-10-22T16:04:42.586Z,3.05
2022-10-22T16:07:17.275Z,2.45
2022-10-22T16:09:51.014Z,2.95
2022-10-22T16:12:18.498Z,3.13
2022-10-22T16:14:50.477Z,2.13
2022-10-22T16:17:24.193Z,2.90
2022-10-22T16:19:51.672Z,2.65
2022-10-22T16:22:19.323Z,3.00
2022-10-22T16:24:53.499Z,3.63
2022-10-22T16:27:21.114Z,3.25
2022-10-22T16:29:49.037Z,3.97
2022-10-22T16:32:16.796Z,2.75
2022-10-22T16:34:44.753Z,1.30
2022-10-22T16:37:12.392Z,2.53
2022-10-22T16:39:42.569Z,2.75
2022-10-22T16:42:15.681Z,1.88
2022-10-22T16:44:46.202Z,2.10
2022-10-22T16:47:14.254Z,2.10
2022-10-22T16:49:41.793Z,2.50
2022-10-22T16:52:09.294Z,3.20
2022-10-22T16:54:36.689Z,2.25
2022-10-22T16:57:12.336Z,3.08
2022-10-22T16:59:42.877Z,2.67
2022-10-22T17:02:18.392Z,3.15
2022-10-22T17:04:51.517Z,2.97
2022-10-22T17:07:22.471Z,2.45
2022-10-22T17:09:52.969Z,2.83
2022-10-22T17:12:32.244Z,4.38
2022-10-22T17:15:02.035Z,3.92
2022-10-22T17:17:38.359Z,3.15
2022-10-22T17:20:15.357Z,2.47
2022-10-22T17:22:51.814Z,2.55
2022-10-22T17:25:29.064Z,4.07
2022-10-22T17:28:05.621Z,3.83
2022-10-22T17:30:44.433Z,2.83
2022-10-22T17:33:17.959Z,3.70
2022-10-22T17:35:54.444Z,2.10
2022-10-22T17:38:25.402Z,3.63
2022-10-22T17:40:58.545Z,4.57
2022-10-22T17:43:34.237Z,2.88
2022-10-22T17:46:25.872Z,4.13
2022-10-22T17:49:02.209Z,4.65
2022-10-22T17:51:30.882Z,3.65
2022-10-22T17:53:59.237Z,5.25
2022-10-22T17:56:32.210Z,3.78
2022-10-22T17:59:08.392Z,5.20
2022-10-22T18:01:37.769Z,5.63
2022-10-22T18:04:07.924Z,4.85
2022-10-22T18:06:38.196Z,5.18
2022-10-22T18:09:17.267Z,5.53
2022-10-22T18:11:46.669Z,5.55
2022-10-22T18:14:16.581Z,2.58
2022-10-22T18:16:43.915Z,3.47
2022-10-22T18:19:14.286Z,5.82
2022-10-22T18:21:41.850Z,4.00
2022-10-22T18:24:16.902Z,3.20
2022-10-22T18:26:47.563Z,4.22
2022-10-22T18:29:17.437Z,4.65
2022-10-22T18:31:46.702Z,4.80
2022-10-22T18:34:16.640Z,5.80
2022-10-22T18:36:46.602Z,5.05
2022-10-22T18:39:15.380Z,5.50
2022-10-22T18:41:43.973Z,8.48
2022-10-22T18:44:13.756Z,7.40
2022-10-22T18:46:41.308Z,4.90
2022-10-22T18:49:13.436Z,5.43
2022-10-22T18:51:41.003Z,8.30
2022-10-22T18:54:22.538Z,5.63
2022-10-22T18:56:52.309Z,8.50
2022-10-22T18:59:25.862Z,6.65
2022-10-22T19:01:54.761Z,4.93
2022-10-22T19:04:22.235Z,5.72
2022-10-22T19:06:50.099Z,6.00
2022-10-22T19:09:17.859Z,8.85
2022-10-22T19:11:49.273Z,8.90
2022-10-22T19:14:16.850Z,6.88
2022-10-22T19:16:44.350Z,10.30
2022-10-22T19:19:16.645Z,6.38
2022-10-22T19:21:44.243Z,8.00
2022-10-22T19:24:13.877Z,8.82
2022-10-22T19:26:42.004Z,3.63
2022-10-22T19:29:10.051Z,6.35
2022-10-22T19:31:40.288Z,6.75
2022-10-22T19:34:07.942Z,5.82
2022-10-22T19:36:35.480Z,4.95
2022-10-22T19:39:04.307Z,4.95
2022-10-22T19:41:32.740Z,7.00
2022-10-22T19:44:00.824Z,5.90
2022-10-22T19:46:29.498Z,4.57
2022-10-22T19:48:56.873Z,5.85
2022-10-22T19:51:29.437Z,5.72
2022-10-22T19:54:03.343Z,6.50
2022-10-22T19:56:32.108Z,5.55
2022-10-22T19:59:00.098Z,5.28
2022-10-22T20:01:27.804Z,6.53
2022-10-22T20:03:55.598Z,6.45
2022-10-22T20:06:23.502Z,4.55
2022-10-22T20:08:56.139Z,4.82
2022-10-22T20:11:29.599Z,7.35
2022-10-22T20:13:59.035Z,8.43
2022-10-22T20:16:28.099Z,6.88
2022-10-22T20:18:58.779Z,6.72
2022-10-22T20:21:26.586Z,4.18
2022-10-22T20:23:55.282Z,5.07
2022-10-22T20:26:23.159Z,5.35
2022-10-22T20:28:52.189Z,5.65
2022-10-22T20:31:21.281Z,5.22
2022-10-22T20:33:50.207Z,5.40
2022-10-22T20:36:20.556Z,3.83
2022-10-22T20:38:48.801Z,4.87
2022-10-22T20:41:22.421Z,3.17
2022-10-22T20:43:51.780Z,2.70
2022-10-22T20:46:25.632Z,4.90
2022-10-22T20:48:55.439Z,3.10
2022-10-22T20:51:22.945Z,3.60
2022-10-22T20:53:53.341Z,2.35
2022-10-22T20:56:21.338Z,3.77
2022-10-22T20:58:49.423Z,4.18
2022-10-22T21:01:19.040Z,2.03
2022-10-22T21:03:46.697Z,2.85
2022-10-22T21:06:18.459Z,4.07
2022-10-22T21:08:50.152Z,2.92
2022-10-22T21:11:18.591Z,1.95
2022-10-22T21:13:47.076Z,2.05
2022-10-22T21:16:17.320Z,2.63
2022-10-22T21:18:46.134Z,0.93
2022-10-22T21:21:13.877Z,3.05
2022-10-22T21:23:41.475Z,3.75
2022-10-22T21:26:09.162Z,1.58
2022-10-22T21:28:37.705Z,1.73
2022-10-22T21:31:07.461Z,2.28
2022-10-22T21:33:40.144Z,2.75
2022-10-22T21:36:07.938Z,2.08
2022-10-22T21:38:36.719Z,1.42
2022-10-22T21:41:10.215Z,2.63
2022-10-22T21:43:39.039Z,1.83
2022-10-22T21:46:09.065Z,2.25
2022-10-22T21:48:37.869Z,1.77
2022-10-22T21:51:17.102Z,1.70
2022-10-22T21:53:45.249Z,3.53
2022-10-22T21:56:30.985Z,3.58
2022-10-22T21:58:58.872Z,2.13
2022-10-22T22:01:26.922Z,1.10
2022-10-22T22:03:54.863Z,1.33
2022-10-22T22:06:24.160Z,2.08
2022-10-22T22:08:53.419Z,2.28
2022-10-22T22:11:24.040Z,2.13
2022-10-22T22:13:53.100Z,1.67
2022-10-22T22:16:27.153Z,2.17
2022-10-22T22:18:58.699Z,1.83
2022-10-22T22:21:26.856Z,1.90
2022-10-22T22:23:54.564Z,1.63
2022-10-22T22:26:28.306Z,4.30
2022-10-22T22:28:59.299Z,2.00
2022-10-22T22:31:29.331Z,3.35
2022-10-22T22:34:08.434Z,2.30
2022-10-22T22:36:38.553Z,1.58
2022-10-22T22:39:08.666Z,2.13
2022-10-22T22:41:36.231Z,3.70
2022-10-22T22:44:04.170Z,2.33
2022-10-22T22:46:31.703Z,1.42
2022-10-22T22:48:59.442Z,2.85
2022-10-22T22:51:26.964Z,2.72
2022-10-22T22:53:54.658Z,2.05
2022-10-22T22:56:25.058Z,1.88
2022-10-22T22:58:52.873Z,2.33
2022-10-22T23:01:33.409Z,3.05
2022-10-22T23:04:07.389Z,3.00
2022-10-22T23:06:36.311Z,2.10
2022-10-22T23:09:06.257Z,2.25
2022-10-22T23:11:34.111Z,1.60
2022-10-22T23:14:04.474Z,2.50
2022-10-22T23:16:35.292Z,2.38
2022-10-22T23:19:04.877Z,1.55
2022-10-22T23:21:35.834Z,2.58
2022-10-22T23:24:07.055Z,1.65
2022-10-22T23:26:38.928Z,2.40
2022-10-22T23:29:10.913Z,2.05
2022-10-22T23:31:38.582Z,2.78
2022-10-22T23:34:07.272Z,2.45
2022-10-22T23:36:37.135Z,1.83
2022-10-22T23:39:09.105Z,2.22
2022-10-22T23:41:37.069Z,1.98
2022-10-22T23:44:05.811Z,3.40
2022-10-22T23:46:33.509Z,2.40
2022-10-22T23:49:01.498Z,1.75
2022-10-22T23:51:29.318Z,1.73
2022-10-22T23:53:59.558Z,2.90
2022-10-22T23:56:28.260Z,2.97
2022-10-22T23:58:56.133Z,3.10
